WetterOnline ( https://www.wetteronline.de )

Wetter aktuell Pfedelbach

Aktuelles Wetter: Öhringen (277m)

6-stündlich | Neueste Meldungen
Ortszeit Temperatur Wetter
Sa, 22.02. 7:00 4.8° C wolkenlos
Sa, 22.02. 1:00 5.4° C bedeckt
Fr, 21.02. 19:00 6.5° C bedeckt
Fr, 21.02. 13:00 7.0° C bewölkt
Fr, 21.02. 7:00 2.9° C wolkig
Fr, 21.02. 1:00 7.5° C bedeckt
Do, 20.02. 19:00 7.9° C bewölkt
Do, 20.02. 13:00 8.8° C bedeckt
Ortszeit Temperatur Wetter
Sa, 22.02. 8:00 3.2° C wolkenlos
Sa, 22.02. 7:30 4.4° C wolkenlos
Sa, 22.02. 7:20 4.4° C wolkenlos
Sa, 22.02. 7:10 4.8° C wolkenlos
Sa, 22.02. 7:00 4.8° C wolkenlos
Sa, 22.02. 6:50 4.8° C wolkenlos
Sa, 22.02. 6:30 4.0° C wolkenlos
Sa, 22.02. 6:00 3.4° C leicht bewölkt
Sa, 22.02. 5:30 2.7° C fast wolkenlos
Sa, 22.02. 5:00 3.1° C leicht bewölkt
Sa, 22.02. 4:30 3.0° C leicht bewölkt
Ortszeit Relative Feuchte Sichtweite
Sa, 22.02. 7:00 60% 50 km
Sa, 22.02. 1:00 61% 50 km
Fr, 21.02. 19:00 57% 45 km
Fr, 21.02. 13:00 60% 45 km
Fr, 21.02. 7:00 78% 50 km
Fr, 21.02. 1:00 80% >70 km
Do, 20.02. 19:00 71% 60 km
Do, 20.02. 13:00 67% 50 km
Ortszeit Relative Feuchte Sichtweite
Sa, 22.02. 8:00 65% 50 km
Sa, 22.02. 7:30 61% 60 km
Sa, 22.02. 7:20 61% -
Sa, 22.02. 7:10 60% -
Sa, 22.02. 7:00 60% 50 km
Sa, 22.02. 6:50 60% -
Sa, 22.02. 6:30 63% 55 km
Sa, 22.02. 6:00 65% 45 km
Sa, 22.02. 5:30 70% 40 km
Sa, 22.02. 5:00 68% 50 km
Sa, 22.02. 4:30 68% 45 km
Ortszeit Niederschlagsmenge Niederschlagsart
Sa, 22.02. 7:00 0.0 l/m2 in 12 Std. -
Sa, 22.02. 1:00 0.0 l/m2 in 6 Std. -
Fr, 21.02. 19:00 0.0 l/m2 in 12 Std. -
Fr, 21.02. 13:00 0.0 l/m2 in 6 Std. -
Fr, 21.02. 7:00 1 l/m2 in 12 Std. Regen
Fr, 21.02. 1:00 0.9 l/m2 in 6 Std. Regen
Do, 20.02. 19:00 0.1 l/m2 in 12 Std. Regen
Do, 20.02. 13:00 0.1 l/m2 in 6 Std. Regen
Ortszeit Niederschlagsmenge Niederschlagsart
Sa, 22.02. 8:00 0.0 l/m2 in 1 Std. -
Sa, 22.02. 7:30 0.0 l/m2 in 1 Std. -
Sa, 22.02. 7:20 keine Meldung -
Sa, 22.02. 7:10 keine Meldung -
Sa, 22.02. 7:00 0.0 l/m2 in 1 Std. -
Sa, 22.02. 6:50 keine Meldung -
Sa, 22.02. 6:30 0.0 l/m2 in 1 Std. -
Sa, 22.02. 6:00 0.0 l/m2 in 1 Std. -
Sa, 22.02. 5:30 0.0 l/m2 in 1 Std. -
Sa, 22.02. 5:00 0.0 l/m2 in 1 Std. -
Sa, 22.02. 4:30 0.0 l/m2 in 1 Std. -
Ortszeit Stärke Spitze Richtung
km/h Bft. km/h Grad Sektor
Sa, 22.02. 7:00 14 3 25 220° SW
Sa, 22.02. 1:00 13 3 24 230° SW
Fr, 21.02. 19:00 13 3 44 250° W
Fr, 21.02. 13:00 22 4 43 250° W
Fr, 21.02. 7:00 11 2 72 270° W
Fr, 21.02. 1:00 36 5 72 250° W
Do, 20.02. 19:00 9 2 44 250° W
Do, 20.02. 13:00 15 3 28 250° W
Ortszeit Stärke Spitze Richtung
km/h Bft. km/h Grad Sektor
Sa, 22.02. 8:00 11 2 26 250° W
Sa, 22.02. 7:30 11 2 25 220° SW
Sa, 22.02. 7:20 11 2 - 220° SW
Sa, 22.02. 7:10 13 3 - 230° SW
Sa, 22.02. 7:00 14 3 25 220° SW
Sa, 22.02. 6:50 14 3 - 220° SW
Sa, 22.02. 6:30 11 2 20 240° SW
Sa, 22.02. 6:00 13 3 19 240° SW
Sa, 22.02. 5:30 9 2 17 230° SW
Sa, 22.02. 5:00 11 2 18 240° SW
Sa, 22.02. 4:30 9 2 19 250° W
Ortszeit Untergrenze Bedeckung Gattung
total tief tief mittel hoch
Sa, 22.02. 7:00 - 0/8 0/8 - - -
Sa, 22.02. 1:00 3900 m 8/8 8/8 - - -
Fr, 21.02. 19:00 3300 m 8/8 8/8 - - -
Fr, 21.02. 13:00 960 m 7/8 6/8 - - -
Fr, 21.02. 7:00 900 m 6/8 7/8 - - -
Fr, 21.02. 1:00 600 m 8/8 8/8 - - -
Do, 20.02. 19:00 1410 m 7/8 7/8 - - -
Do, 20.02. 13:00 810 m 8/8 8/8 - - -
Ortszeit Bedeckungsgrad in Achtel und Wolkenuntergrenze
Sa, 22.02. 8:00 keine Wolken
Sa, 22.02. 7:30 keine Wolken
Sa, 22.02. 7:20 keine Wolken
Sa, 22.02. 7:10 keine Wolken
Sa, 22.02. 7:00 keine Wolken
Sa, 22.02. 6:50 keine Wolken
Sa, 22.02. 6:30 keine Wolken
Sa, 22.02. 6:00 1(4800m) 6(9000m) 6(10500m)
Sa, 22.02. 5:30 1(9000m) 4(9000m)
Sa, 22.02. 5:00 6(10500m) 6(10500m)
Sa, 22.02. 4:30 4(9000m)
Ortszeit Luftdruck NN (hPa) Tendenz (hPa in 3 Std.)
Sa, 22.02. 7:00 1028 - 0,7
Sa, 22.02. 1:00 1030 - 0,9
Fr, 21.02. 19:00 1031 + 0,7
Fr, 21.02. 13:00 1031 + 0,4
Fr, 21.02. 7:00 1028 + 3,6
Fr, 21.02. 1:00 1018 + 0,5
Do, 20.02. 19:00 1019 - 0,9
Do, 20.02. 13:00 1021 - 1,9
Ortszeit Luftdruck NN (hPa) Tendenz (hPa in 3 Std.)
Sa, 22.02. 8:00 1029 - 1,0
Sa, 22.02. 7:30 1029 - 0,7
Sa, 22.02. 7:20 1029 keine Meldung
Sa, 22.02. 7:10 1029 keine Meldung
Sa, 22.02. 7:00 1028 - 0,7
Sa, 22.02. 6:50 1028 keine Meldung
Sa, 22.02. 6:30 1029 - 0,2
Sa, 22.02. 6:00 1029 - 0,6
Sa, 22.02. 5:30 1029 - 0,2
Sa, 22.02. 5:00 1030 - 0,4
Sa, 22.02. 4:30 1029 - 0,6
Ortszeit Schneehöhe (cm)
Sa, 22.02. 7:00 0
Sa, 22.02. 1:00 0
Fr, 21.02. 19:00 0
Fr, 21.02. 13:00 0
Fr, 21.02. 7:00 0
Fr, 21.02. 1:00 0
Do, 20.02. 19:00 0
Do, 20.02. 13:00 0
Ortszeit Schneehöhe (cm)
Sa, 22.02. 8:00 0
Sa, 22.02. 7:30 0
Sa, 22.02. 7:20 0
Sa, 22.02. 7:10 0
Sa, 22.02. 7:00 0
Sa, 22.02. 6:50 0
Sa, 22.02. 6:30 0
Sa, 22.02. 6:00 0
Sa, 22.02. 5:30 0
Sa, 22.02. 5:00 0
Sa, 22.02. 4:30 0
Link zu dieser Seite / Seite empfehlen

Das Wetter in ...